Time;durP1;ratioP1;P1;durP2;ratioP2;P2;SDS_P1;SDS_P2;PMS_P1;PMS_P2;Temp;Humidity;BMP_temperature;BMP_pressure;BME280_temperature;BME280_humidity;BME280_pressure;Samples;Min_cycle;Max_cycle;Signal;HPM_P1;HPM_P2
2022/06/11 00:01:59;;;;;;;4.65;2.63;;;13.10;99.90;;;;;;5032110;28;20036;-73
2022/06/11 00:04:30;;;;;;;2.85;2.15;;;13.20;99.90;;;;;;5043043;28;20034;-72
2022/06/11 00:07:00;;;;;;;3.88;2.15;;;13.20;99.90;;;;;;5047476;28;20237;-73
2022/06/11 00:09:27;;;;;;;4.73;2.33;;;13.10;99.90;;;;;;5032567;28;20374;-73
2022/06/11 00:11:54;;;;;;;3.72;2.47;;;13.00;99.90;;;;;;5031872;28;20060;-73
2022/06/11 00:14:24;;;;;;;3.72;2.65;;;12.80;99.90;;;;;;5032131;28;20493;-73
2022/06/11 00:16:51;;;;;;;3.33;2.22;;;12.70;99.90;;;;;;5031915;28;20030;-72
2022/06/11 00:19:20;;;;;;;4.07;2.72;;;12.70;99.90;;;;;;5031208;28;20403;-72
2022/06/11 00:21:48;;;;;;;4.00;2.78;;;12.70;99.90;;;;;;5040448;28;20025;-73
2022/06/11 00:24:14;;;;;;;3.85;2.78;;;12.60;99.90;;;;;;5045533;28;20040;-73
2022/06/11 00:26:42;;;;;;;7.25;2.60;;;12.60;99.90;;;;;;5044040;28;20040;-73
2022/06/11 00:29:10;;;;;;;5.63;2.70;;;12.40;99.90;;;;;;5032490;28;20037;-73
2022/06/11 00:31:37;;;;;;;2.92;2.28;;;12.30;99.90;;;;;;5035444;28;20036;-73
2022/06/11 00:34:03;;;;;;;5.13;2.83;;;12.20;99.90;;;;;;5038081;28;20379;-73
2022/06/11 00:36:30;;;;;;;4.40;2.65;;;12.20;99.90;;;;;;5043572;28;20060;-73
2022/06/11 00:38:57;;;;;;;5.07;2.63;;;12.20;99.90;;;;;;5034607;28;20048;-73
2022/06/11 00:41:26;;;;;;;2.90;2.42;;;12.20;99.90;;;;;;5040158;28;20040;-73
2022/06/11 00:43:53;;;;;;;4.90;2.90;;;12.10;99.90;;;;;;5037907;28;20049;-72
2022/06/11 00:46:56;;;;;;;4.38;2.75;;;12.20;99.90;;;;;;5046681;28;20508;-73
2022/06/11 00:49:34;;;;;;;4.38;3.15;;;12.20;99.90;;;;;;5041275;28;20028;-74
2022/06/11 00:52:09;;;;;;;4.63;2.42;;;12.30;99.90;;;;;;5040631;28;20087;-74
2022/06/11 00:54:39;;;;;;;6.20;3.17;;;12.30;99.90;;;;;;5035663;28;20041;-74
2022/06/11 00:57:07;;;;;;;8.43;3.40;;;12.20;99.90;;;;;;5035760;28;20036;-74
2022/06/11 00:59:44;;;;;;;5.95;3.00;;;12.10;99.90;;;;;;5035499;28;20033;-74
2022/06/11 01:02:11;;;;;;;4.85;3.00;;;12.10;99.90;;;;;;5037972;28;20029;-74
2022/06/11 01:04:40;;;;;;;6.07;3.10;;;12.10;99.90;;;;;;5050938;28;20053;-79
2022/06/11 01:07:24;;;;;;;5.55;2.95;;;12.10;99.90;;;;;;5035744;28;20505;-73
2022/06/11 01:10:06;;;;;;;4.93;3.15;;;12.10;99.90;;;;;;5034803;28;20053;-74
2022/06/11 01:12:46;;;;;;;4.15;2.78;;;12.10;99.90;;;;;;5038335;28;20049;-74
2022/06/11 01:15:40;;;;;;;4.22;2.90;;;12.20;99.90;;;;;;5048911;28;20482;-73
2022/06/11 01:18:40;;;;;;;4.88;3.30;;;12.30;99.90;;;;;;5044345;28;20032;-74
2022/06/11 01:21:19;;;;;;;4.93;3.17;;;12.20;99.90;;;;;;5041326;28;20037;-74
2022/06/11 01:24:20;;;;;;;5.78;3.45;;;12.20;99.90;;;;;;5034588;28;20053;-74
2022/06/11 01:27:22;;;;;;;4.88;2.72;;;12.30;99.90;;;;;;5034729;28;20402;-74
2022/06/11 01:29:55;;;;;;;5.65;2.95;;;12.20;99.90;;;;;;5046147;28;20029;-72
2022/06/11 01:32:38;;;;;;;5.57;2.53;;;12.10;99.90;;;;;;5034201;28;20048;-71
2022/06/11 01:35:10;;;;;;;4.38;2.33;;;12.00;99.90;;;;;;5034912;28;20029;-72
2022/06/11 01:37:51;;;;;;;4.72;2.30;;;11.90;99.90;;;;;;5034543;28;20501;-73
2022/06/11 01:40:47;;;;;;;5.57;2.92;;;11.90;99.90;;;;;;5034528;28;20037;-72
2022/06/11 01:43:31;;;;;;;5.43;2.65;;;11.90;99.90;;;;;;5035094;28;20045;-72
2022/06/11 01:46:01;;;;;;;7.07;2.92;;;11.80;99.90;;;;;;5033571;28;20382;-72
2022/06/11 01:48:29;;;;;;;7.15;3.03;;;11.70;99.90;;;;;;5034712;28;20061;-72
2022/06/11 01:51:13;;;;;;;4.45;2.75;;;11.70;99.90;;;;;;5033874;28;20040;-72
2022/06/11 01:53:41;;;;;;;3.63;3.08;;;11.70;99.90;;;;;;5034542;28;20044;-71
2022/06/11 01:56:43;;;;;;;7.72;4.40;;;11.60;99.90;;;;;;5049561;28;20040;-73
2022/06/11 01:59:37;;;;;;;5.35;3.75;;;11.70;99.90;;;;;;5037733;28;20050;-74
2022/06/11 02:02:34;;;;;;;4.13;3.45;;;11.80;99.90;;;;;;5035342;28;20382;-73
2022/06/11 02:05:08;;;;;;;4.82;3.22;;;11.80;99.90;;;;;;5044750;28;20037;-73
2022/06/11 02:07:42;;;;;;;5.78;2.85;;;11.80;99.90;;;;;;5034070;28;20033;-77
2022/06/11 02:10:23;;;;;;;4.13;2.97;;;11.80;99.90;;;;;;5034408;28;20037;-74
2022/06/11 02:12:55;;;;;;;5.65;3.67;;;11.80;99.90;;;;;;5033951;28;20049;-72
2022/06/11 02:16:07;;;;;;;6.70;3.00;;;11.80;99.90;;;;;;5034588;28;20478;-74
2022/06/11 02:18:34;;;;;;;5.47;3.30;;;11.80;99.90;;;;;;5030691;28;20530;-73
2022/06/11 02:21:09;;;;;;;5.28;3.10;;;11.70;99.90;;;;;;5014233;28;20044;-73
2022/06/11 02:24:02;;;;;;;6.05;3.35;;;11.70;99.90;;;;;;5036215;28;20512;-72
2022/06/11 02:26:38;;;;;;;5.82;3.55;;;11.50;99.90;;;;;;5049046;28;20053;-72
2022/06/11 02:29:07;;;;;;;5.32;3.38;;;11.40;99.90;;;;;;5033955;28;20029;-73
2022/06/11 02:31:40;;;;;;;4.80;3.40;;;11.30;99.90;;;;;;5033746;28;20030;-73
2022/06/11 02:34:07;;;;;;;5.82;3.95;;;11.20;99.90;;;;;;5033994;28;20033;-72
2022/06/11 02:37:04;;;;;;;5.88;3.63;;;11.30;99.90;;;;;;5033615;28;20037;-72
2022/06/11 02:39:34;;;;;;;8.40;4.05;;;11.40;99.90;;;;;;5041091;28;20049;-72
2022/06/11 02:42:03;;;;;;;5.53;3.57;;;11.40;99.90;;;;;;5051130;28;20029;-72
2022/06/11 02:44:29;;;;;;;5.30;3.40;;;11.50;99.90;;;;;;5040489;28;20290;-73
2022/06/11 02:46:55;;;;;;;5.03;3.47;;;11.40;99.90;;;;;;5046462;28;20037;-73
2022/06/11 02:49:25;;;;;;;7.45;3.40;;;11.30;99.90;;;;;;5040992;28;20036;-73
2022/06/11 02:51:59;;;;;;;5.25;3.20;;;11.20;99.90;;;;;;5040926;28;20029;-73
2022/06/11 02:54:26;;;;;;;4.40;3.13;;;11.10;99.90;;;;;;5036074;28;20044;-72
2022/06/11 02:56:54;;;;;;;8.00;3.22;;;11.00;99.90;;;;;;5032668;28;20042;-72
2022/06/11 02:59:23;;;;;;;4.75;3.58;;;11.00;99.90;;;;;;5031531;28;20041;-73
2022/06/11 03:01:50;;;;;;;5.25;3.50;;;10.90;99.90;;;;;;5045739;28;20036;-72
2022/06/11 03:04:16;;;;;;;4.35;3.70;;;10.90;99.90;;;;;;5033402;28;20029;-72
2022/06/11 03:06:43;;;;;;;6.35;3.55;;;10.90;99.90;;;;;;5015515;28;20045;-72
2022/06/11 03:09:11;;;;;;;6.03;3.90;;;10.90;99.90;;;;;;5033033;28;20048;-72
2022/06/11 03:11:38;;;;;;;7.00;3.95;;;10.90;99.90;;;;;;5033015;28;20026;-72
2022/06/11 03:14:06;;;;;;;6.00;3.38;;;10.80;99.90;;;;;;5042349;28;20132;-71
2022/06/11 03:16:32;;;;;;;5.38;3.30;;;10.80;99.90;;;;;;5033076;28;20037;-73
2022/06/11 03:18:59;;;;;;;7.82;4.28;;;10.90;99.90;;;;;;5032363;28;20034;-74
2022/06/11 03:21:25;;;;;;;4.70;2.88;;;11.00;99.90;;;;;;5032367;28;20041;-74
2022/06/11 03:23:51;;;;;;;4.90;3.10;;;11.10;99.90;;;;;;5032867;28;20403;-74
2022/06/11 03:26:17;;;;;;;7.28;3.38;;;11.10;99.90;;;;;;5042519;28;20041;-74
2022/06/11 03:28:43;;;;;;;4.50;3.30;;;11.20;99.90;;;;;;5047593;28;20045;-74
2022/06/11 03:31:10;;;;;;;4.75;3.30;;;11.30;99.90;;;;;;5035405;28;20021;-73
2022/06/11 03:33:38;;;;;;;5.18;3.22;;;11.20;99.90;;;;;;5048854;28;20147;-74
2022/06/11 03:36:08;;;;;;;4.53;2.67;;;11.20;99.90;;;;;;5032221;28;20037;-74
2022/06/11 03:38:35;;;;;;;5.20;3.20;;;11.10;99.90;;;;;;5032951;28;20033;-72
2022/06/11 03:41:01;;;;;;;5.38;3.25;;;11.10;99.90;;;;;;5041404;28;20041;-72
2022/06/11 03:43:28;;;;;;;5.07;2.90;;;11.30;99.90;;;;;;5036613;28;20036;-72
2022/06/11 03:45:54;;;;;;;4.00;2.90;;;11.40;99.90;;;;;;5041722;28;20040;-72
2022/06/11 03:48:21;;;;;;;6.97;3.45;;;11.40;99.90;;;;;;5032591;28;20041;-72
2022/06/11 03:50:47;;;;;;;3.63;2.65;;;11.50;99.90;;;;;;5030602;28;20037;-73
2022/06/11 03:53:14;;;;;;;5.10;3.20;;;11.60;99.90;;;;;;5032160;28;20033;-73
2022/06/11 03:55:42;;;;;;;4.72;3.28;;;11.80;99.90;;;;;;5032326;28;20045;-73
2022/06/11 03:58:10;;;;;;;4.00;3.20;;;11.90;99.90;;;;;;5032336;28;20056;-73
2022/06/11 04:03:24;;;;;;;3.35;2.42;;;12.00;99.90;;;;;;5032186;28;20033;-76
2022/06/11 04:05:52;;;;;;;5.10;3.08;;;12.30;99.90;;;;;;5032164;28;20025;-73
2022/06/11 04:08:18;;;;;;;4.63;2.55;;;12.50;99.90;;;;;;5032431;28;20053;-73
2022/06/11 04:10:45;;;;;;;4.25;2.50;;;12.80;99.90;;;;;;5031663;28;20498;-73
2022/06/11 04:13:13;;;;;;;3.80;2.67;;;13.10;99.90;;;;;;5032363;28;20057;-73
2022/06/11 04:15:41;;;;;;;3.92;2.63;;;13.20;99.90;;;;;;5031143;28;20041;-74
2022/06/11 04:18:08;;;;;;;4.47;2.53;;;13.40;99.90;;;;;;5032332;28;20029;-73
2022/06/11 04:20:35;;;;;;;2.65;1.75;;;14.10;99.90;;;;;;5031123;28;20033;-73
2022/06/11 04:23:01;;;;;;;6.88;2.80;;;14.70;99.90;;;;;;5031680;28;20029;-72
2022/06/11 04:25:28;;;;;;;3.78;2.38;;;15.30;99.90;;;;;;5040003;28;20041;-73
2022/06/11 04:27:54;;;;;;;3.85;1.75;;;16.30;99.90;;;;;;5044516;28;20053;-72
2022/06/11 04:30:24;;;;;;;4.65;2.13;;;17.00;99.90;;;;;;5036075;28;20163;-72
2022/06/11 04:32:50;;;;;;;4.20;2.22;;;17.80;99.90;;;;;;5043615;28;20032;-72
2022/06/11 04:35:16;;;;;;;4.18;1.77;;;18.30;97.60;;;;;;5039031;28;20029;-73
2022/06/11 04:37:43;;;;;;;6.07;1.63;;;19.30;93.80;;;;;;5042466;28;20048;-73
2022/06/11 04:40:09;;;;;;;2.83;1.50;;;20.20;90.30;;;;;;5041133;28;20029;-72
2022/06/11 04:42:36;;;;;;;3.10;1.52;;;20.90;81.70;;;;;;5039260;28;20060;-73
2022/06/11 04:45:04;;;;;;;4.15;1.83;;;20.90;80.80;;;;;;5051618;28;20672;-73
2022/06/11 04:47:31;;;;;;;3.45;1.42;;;21.60;78.60;;;;;;5033975;28;20042;-73
2022/06/11 04:49:59;;;;;;;3.35;2.05;;;21.90;74.70;;;;;;5031947;28;20029;-73
2022/06/11 04:52:26;;;;;;;2.83;1.50;;;20.50;79.30;;;;;;5049604;28;20033;-72
2022/06/11 04:54:52;;;;;;;3.70;1.88;;;19.30;85.30;;;;;;5035485;28;20037;-72
2022/06/11 04:57:20;;;;;;;3.92;1.65;;;18.40;91.50;;;;;;5031628;28;20045;-72
2022/06/11 04:59:47;;;;;;;4.40;1.83;;;17.30;95.00;;;;;;5031631;28;20065;-73
2022/06/11 05:02:13;;;;;;;3.40;1.92;;;16.60;98.70;;;;;;5032047;28;20040;-74
2022/06/11 05:04:39;;;;;;;5.28;2.75;;;16.20;99.90;;;;;;5032061;28;20033;-75
2022/06/11 05:07:05;;;;;;;3.28;1.75;;;15.70;99.90;;;;;;5031207;28;20045;-74
2022/06/11 05:09:33;;;;;;;3.42;1.98;;;15.80;99.90;;;;;;5040955;28;20386;-74
2022/06/11 05:12:01;;;;;;;5.25;1.60;;;16.00;99.90;;;;;;5031120;28;20475;-74
2022/06/11 05:14:27;;;;;;;4.63;1.90;;;16.50;99.90;;;;;;5031840;28;20030;-74
2022/06/11 05:16:56;;;;;;;2.67;1.83;;;17.00;99.90;;;;;;5048638;28;20466;-74
2022/06/11 05:19:23;;;;;;;4.20;2.00;;;18.50;99.90;;;;;;5035190;28;20455;-74
2022/06/11 05:21:50;;;;;;;4.50;2.13;;;20.80;93.10;;;;;;5053112;28;20036;-74
2022/06/11 05:24:19;;;;;;;8.68;2.55;;;22.30;85.10;;;;;;5036139;28;20368;-74
2022/06/11 05:27:06;;;;;;;5.03;2.72;;;22.80;77.20;;;;;;5043849;28;20021;-74
2022/06/11 05:29:44;;;;;;;5.05;2.63;;;23.00;74.80;;;;;;5040502;28;20037;-74
2022/06/11 05:32:10;;;;;;;3.58;1.88;;;22.60;75.10;;;;;;5050229;28;20383;-74
2022/06/11 05:34:37;;;;;;;7.32;2.83;;;21.90;78.90;;;;;;5043587;28;20041;-74
2022/06/11 05:37:03;;;;;;;8.45;3.50;;;23.00;74.40;;;;;;5047064;28;20214;-74
2022/06/11 05:39:29;;;;;;;7.20;3.13;;;23.40;72.60;;;;;;5034769;28;20029;-77
2022/06/11 05:41:57;;;;;;;6.85;3.72;;;23.90;71.60;;;;;;5033097;28;20037;-73
2022/06/11 05:44:24;;;;;;;10.43;3.35;;;24.00;69.30;;;;;;5034751;28;20045;-74
2022/06/11 05:46:52;;;;;;;6.10;3.35;;;23.70;68.70;;;;;;5033411;28;20033;-72
2022/06/11 05:49:23;;;;;;;5.05;3.35;;;23.80;71.80;;;;;;5034514;28;20033;-72
2022/06/11 05:51:54;;;;;;;5.70;3.35;;;24.40;68.70;;;;;;5050568;28;20029;-72
2022/06/11 05:54:24;;;;;;;6.80;4.35;;;24.90;69.00;;;;;;5034518;28;20471;-72
2022/06/11 05:56:52;;;;;;;8.13;3.58;;;24.00;67.70;;;;;;5034549;28;20038;-75
2022/06/11 05:59:23;;;;;;;7.55;3.67;;;24.50;68.10;;;;;;5039111;28;20033;-73
2022/06/11 06:01:51;;;;;;;8.93;4.45;;;24.50;69.20;;;;;;5048359;28;20052;-72
2022/06/11 06:04:17;;;;;;;9.95;4.63;;;24.00;68.40;;;;;;5046870;28;20033;-72
2022/06/11 06:06:43;;;;;;;7.38;4.72;;;23.50;70.60;;;;;;5034373;28;20026;-72
2022/06/11 06:09:10;;;;;;;5.47;3.30;;;23.30;70.00;;;;;;5034060;28;20033;-74
2022/06/11 06:11:36;;;;;;;6.20;3.17;;;22.80;70.90;;;;;;5040526;28;20036;-73
2022/06/11 06:14:02;;;;;;;11.43;3.03;;;22.10;71.60;;;;;;5044546;28;20495;-73
2022/06/11 06:16:30;;;;;;;6.15;2.60;;;21.80;74.80;;;;;;5034048;28;20477;-73
2022/06/11 06:18:58;;;;;;;7.10;2.63;;;21.20;75.70;;;;;;5033850;28;20510;-72
2022/06/11 06:21:28;;;;;;;5.70;2.42;;;20.80;80.60;;;;;;5033767;28;20048;-72
2022/06/11 06:23:54;;;;;;;4.85;2.50;;;20.50;84.70;;;;;;5033882;28;20459;-73
2022/06/11 06:26:21;;;;;;;3.35;2.05;;;20.50;85.40;;;;;;5034776;28;20041;-72
2022/06/11 06:28:47;;;;;;;3.83;1.90;;;20.50;87.50;;;;;;5053379;28;20040;-72
2022/06/11 06:31:15;;;;;;;3.60;2.13;;;20.60;87.70;;;;;;5047964;28;20042;-72
2022/06/11 06:33:43;;;;;;;8.15;2.22;;;20.60;88.80;;;;;;5033714;28;20038;-71
2022/06/11 06:36:10;;;;;;;5.75;1.90;;;20.80;87.90;;;;;;5033234;28;20033;-71
2022/06/11 06:38:38;;;;;;;3.35;1.42;;;20.90;88.10;;;;;;5033654;28;20041;-72
2022/06/11 06:41:05;;;;;;;5.07;1.80;;;21.10;86.10;;;;;;5033028;28;20324;-73
2022/06/11 06:43:31;;;;;;;3.75;2.08;;;20.70;86.50;;;;;;5033866;28;20394;-71
2022/06/11 06:45:58;;;;;;;3.20;1.58;;;20.40;87.60;;;;;;5033053;28;20026;-72
2022/06/11 06:48:24;;;;;;;3.53;1.60;;;20.40;86.90;;;;;;5037270;28;20492;-72
2022/06/11 06:50:51;;;;;;;3.28;2.00;;;20.20;86.40;;;;;;5045714;28;20037;-71
2022/06/11 06:53:17;;;;;;;4.45;2.38;;;20.30;86.70;;;;;;5033310;28;20029;-72
2022/06/11 06:55:44;;;;;;;4.13;1.77;;;20.50;86.90;;;;;;5033810;28;20386;-72
2022/06/11 06:58:10;;;;;;;7.28;2.20;;;20.90;83.70;;;;;;5033605;28;20060;-71
2022/06/11 07:00:36;;;;;;;4.22;2.00;;;21.20;81.10;;;;;;5033506;28;20032;-71
2022/06/11 07:03:02;;;;;;;3.92;2.20;;;21.20;77.40;;;;;;5033142;28;20033;-72
2022/06/11 07:05:29;;;;;;;7.95;2.53;;;20.50;78.70;;;;;;5033448;28;20041;-72
2022/06/11 07:07:55;;;;;;;5.72;2.10;;;20.50;80.40;;;;;;5032674;28;20044;-72
2022/06/11 07:10:23;;;;;;;5.93;2.35;;;20.80;80.20;;;;;;5033321;28;20033;-72
2022/06/11 07:12:50;;;;;;;6.03;2.75;;;20.70;79.90;;;;;;5052321;28;20048;-73
2022/06/11 07:15:16;;;;;;;9.15;1.95;;;20.90;78.00;;;;;;5033525;28;20037;-74
2022/06/11 07:18:06;;;;;;;10.85;2.58;;;21.00;77.80;;;;;;5032953;28;20029;-73
2022/06/11 07:20:35;;;;;;;6.25;2.60;;;20.80;78.90;;;;;;5050026;28;20029;-74
2022/06/11 07:23:10;;;;;;;5.93;2.90;;;20.70;79.60;;;;;;5032541;28;20037;-73
2022/06/11 07:25:39;;;;;;;6.22;3.25;;;20.50;79.00;;;;;;5033087;28;20050;-75
2022/06/11 07:28:13;;;;;;;6.40;2.17;;;20.80;79.20;;;;;;5032086;28;20116;-74
2022/06/11 07:30:41;;;;;;;5.45;2.72;;;21.70;76.00;;;;;;5048048;28;20037;-72
2022/06/11 07:33:15;;;;;;;6.22;3.08;;;22.20;74.00;;;;;;5032031;28;20580;-72
2022/06/11 07:35:42;;;;;;;5.00;3.15;;;23.40;71.30;;;;;;5039866;28;20051;-72
2022/06/11 07:38:14;;;;;;;5.65;2.70;;;24.80;63.80;;;;;;5037831;28;20057;-74
2022/06/11 07:40:40;;;;;;;3.53;2.78;;;25.20;61.90;;;;;;5044660;28;20037;-72
2022/06/11 07:43:08;;;;;;;7.80;2.92;;;25.10;62.30;;;;;;5037207;28;20491;-73
2022/06/11 07:45:36;;;;;;;5.70;2.60;;;25.10;62.40;;;;;;5047918;28;20048;-73
2022/06/11 07:48:03;;;;;;;5.85;2.78;;;25.10;60.90;;;;;;5034569;28;20387;-73
2022/06/11 07:50:33;;;;;;;5.88;2.95;;;25.70;59.60;;;;;;5032381;28;20080;-73
2022/06/11 07:53:01;;;;;;;4.07;2.75;;;26.10;57.40;;;;;;5041555;28;20052;-72
2022/06/11 07:55:28;;;;;;;3.80;2.78;;;25.40;59.00;;;;;;5036925;28;20029;-72
2022/06/11 07:57:55;;;;;;;8.43;3.33;;;25.30;58.90;;;;;;5032091;28;20476;-73
2022/06/11 08:00:28;;;;;;;4.85;2.67;;;24.90;60.80;;;;;;5031048;28;20368;-73
2022/06/11 08:02:55;;;;;;;6.75;2.60;;;25.60;60.50;;;;;;5031113;28;20422;-73
2022/06/11 08:05:21;;;;;;;4.82;2.50;;;25.70;59.00;;;;;;5041251;28;20386;-73
2022/06/11 08:07:51;;;;;;;6.80;3.13;;;25.30;61.40;;;;;;5044830;28;20041;-75
2022/06/11 08:10:18;;;;;;;4.07;2.63;;;25.90;60.90;;;;;;5032081;28;20049;-74
2022/06/11 08:12:44;;;;;;;3.00;1.75;;;26.30;57.00;;;;;;5032643;28;20053;-73
2022/06/11 08:15:11;;;;;;;4.88;2.05;;;26.30;57.80;;;;;;5038862;28;20040;-73
2022/06/11 08:17:40;;;;;;;7.10;2.60;;;26.80;56.40;;;;;;5039479;28;20382;-75
2022/06/11 08:20:08;;;;;;;3.67;1.90;;;25.80;57.60;;;;;;5046885;28;20492;-73
2022/06/11 08:22:35;;;;;;;4.65;2.30;;;25.90;59.30;;;;;;5047280;28;20045;-73
2022/06/11 08:25:01;;;;;;;4.07;2.30;;;25.90;59.00;;;;;;5029927;28;20044;-73
2022/06/11 08:27:27;;;;;;;6.88;2.97;;;26.10;58.40;;;;;;5032303;28;20044;-73
2022/06/11 08:29:53;;;;;;;3.72;1.80;;;25.60;58.60;;;;;;5031516;28;20029;-72
2022/06/11 08:32:19;;;;;;;6.53;2.80;;;25.60;58.10;;;;;;5037989;28;20040;-73
2022/06/11 08:34:46;;;;;;;4.63;2.63;;;25.60;59.30;;;;;;5034969;28;20029;-73
2022/06/11 08:37:14;;;;;;;6.00;2.45;;;26.30;57.30;;;;;;5035325;28;20036;-73
2022/06/11 08:39:41;;;;;;;4.35;2.00;;;26.30;57.40;;;;;;5041028;28;20052;-73
2022/06/11 08:42:36;;;;;;;4.05;1.92;;;27.00;57.10;;;;;;5030672;28;20042;-74
2022/06/11 08:45:19;;;;;;;6.90;2.17;;;27.90;55.40;;;;;;5031872;28;20379;-77
2022/06/11 08:47:52;;;;;;;6.80;2.63;;;27.70;54.30;;;;;;5032054;28;20045;-73
2022/06/11 08:50:37;;;;;;;3.92;2.10;;;26.90;55.80;;;;;;5032012;28;20029;-75
2022/06/11 08:53:05;;;;;;;5.03;2.10;;;27.70;54.90;;;;;;5031356;28;20463;-74
2022/06/11 08:55:37;;;;;;;4.53;1.70;;;28.00;54.30;;;;;;5031767;28;20032;-73
2022/06/11 08:58:28;;;;;;;3.13;1.17;;;27.20;54.00;;;;;;5035611;28;20041;-73
2022/06/11 09:01:11;;;;;;;3.05;1.60;;;27.80;54.30;;;;;;5034118;28;20045;-73
2022/06/11 09:03:45;;;;;;;4.53;1.50;;;29.10;52.70;;;;;;5035949;28;20040;-74
2022/06/11 09:06:38;;;;;;;2.55;1.15;;;28.90;52.20;;;;;;5035495;28;20045;-74
2022/06/11 09:09:24;;;;;;;3.25;1.25;;;27.50;52.80;;;;;;5034794;28;20370;-74
2022/06/11 09:12:27;;;;;;;6.75;1.80;;;27.80;55.70;;;;;;5035168;28;20041;-74
2022/06/11 09:15:18;;;;;;;6.30;1.63;;;28.90;52.00;;;;;;5034807;28;20494;-74
2022/06/11 09:18:12;;;;;;;3.75;1.27;;;28.80;52.00;;;;;;5035561;28;20030;-73
2022/06/11 09:21:03;;;;;;;3.03;1.30;;;28.50;51.80;;;;;;5039801;28;20025;-73
2022/06/11 09:23:49;;;;;;;4.78;1.08;;;28.60;50.90;;;;;;5046451;28;20025;-73
2022/06/11 09:26:22;;;;;;;5.78;1.52;;;29.20;50.20;;;;;;5032268;28;20049;-74
2022/06/11 09:29:06;;;;;;;4.13;1.48;;;29.30;50.20;;;;;;5038692;28;20044;-77
2022/06/11 09:31:37;;;;;;;7.35;1.27;;;28.80;51.20;;;;;;5050969;28;20037;-74
2022/06/11 09:34:12;;;;;;;8.02;1.63;;;29.30;49.40;;;;;;5034632;28;20467;-74
2022/06/11 09:37:03;;;;;;;3.35;1.20;;;28.80;49.10;;;;;;5043385;28;20026;-74
2022/06/11 09:39:43;;;;;;;3.08;1.33;;;28.50;50.40;;;;;;5035261;28;20041;-77
2022/06/11 09:42:24;;;;;;;4.63;1.23;;;28.40;52.10;;;;;;5035806;28;20064;-74
2022/06/11 09:44:53;;;;;;;3.67;1.50;;;27.40;52.10;;;;;;5052646;28;20037;-74
2022/06/11 09:47:25;;;;;;;2.47;0.88;;;26.30;52.70;;;;;;5035712;28;20048;-73
2022/06/11 09:50:19;;;;;;;6.85;1.33;;;25.70;53.40;;;;;;5033568;28;20500;-74
2022/06/11 09:53:01;;;;;;;3.90;1.30;;;25.10;53.70;;;;;;5035213;28;20037;-73
2022/06/11 09:55:41;;;;;;;4.68;1.40;;;26.00;52.70;;;;;;5035597;28;20034;-75
2022/06/11 09:58:39;;;;;;;4.10;1.23;;;27.50;51.90;;;;;;5040442;28;20039;-74
2022/06/11 10:01:17;;;;;;;3.80;1.08;;;28.10;50.40;;;;;;5044029;28;20037;-74
2022/06/11 10:04:09;;;;;;;4.22;0.98;;;28.30;51.30;;;;;;5043074;28;20029;-74
2022/06/11 10:07:01;;;;;;;4.15;1.00;;;28.10;50.80;;;;;;5034376;28;20037;-76
2022/06/11 10:09:44;;;;;;;2.13;0.80;;;27.40;51.60;;;;;;5047106;28;20045;-75
2022/06/11 10:12:22;;;;;;;3.60;1.00;;;27.90;49.30;;;;;;5060469;28;20061;-72
2022/06/11 10:14:58;;;;;;;5.35;1.50;;;26.60;50.80;;;;;;5042794;28;20033;-75
2022/06/11 10:17:46;;;;;;;4.30;1.40;;;25.40;52.00;;;;;;5037650;28;20025;-76
2022/06/11 10:20:25;;;;;;;2.65;0.90;;;25.90;52.00;;;;;;5046532;28;20045;-76
2022/06/11 10:22:57;;;;;;;3.28;1.20;;;26.30;51.60;;;;;;5037897;28;20378;-76
2022/06/11 10:25:26;;;;;;;2.40;1.08;;;26.50;51.10;;;;;;5045086;28;20034;-74
2022/06/11 10:28:01;;;;;;;3.10;1.27;;;26.20;51.20;;;;;;5032342;28;20398;-74
2022/06/11 10:30:34;;;;;;;1.58;1.00;;;26.10;51.60;;;;;;5034926;28;20479;-73
2022/06/11 10:33:05;;;;;;;4.25;1.40;;;26.70;52.40;;;;;;5032783;28;20067;-74
2022/06/11 10:35:45;;;;;;;1.95;1.13;;;27.80;51.40;;;;;;5049562;28;20033;-75
2022/06/11 10:38:25;;;;;;;5.82;1.10;;;27.80;50.20;;;;;;5033386;28;20048;-75
2022/06/11 10:40:54;;;;;;;3.95;1.40;;;27.70;51.40;;;;;;5032457;28;20041;-76
2022/06/11 10:43:34;;;;;;;3.07;0.90;;;27.40;50.50;;;;;;5044291;28;20037;-76
2022/06/11 10:46:01;;;;;;;2.75;0.90;;;26.90;51.20;;;;;;5041387;28;20291;-74
2022/06/11 10:48:33;;;;;;;3.83;1.10;;;27.00;51.00;;;;;;5048938;28;20532;-76
2022/06/11 10:51:01;;;;;;;3.13;1.10;;;26.70;51.70;;;;;;5032856;28;20376;-76
2022/06/11 10:53:36;;;;;;;3.00;1.63;;;26.40;50.70;;;;;;5037886;28;20029;-76
2022/06/11 10:56:34;;;;;;;2.17;1.00;;;26.20;51.00;;;;;;5050569;28;20032;-74
2022/06/11 10:59:15;;;;;;;3.88;1.30;;;26.50;51.50;;;;;;5050811;28;20044;-76
2022/06/11 11:01:50;;;;;;;3.13;1.35;;;27.20;49.80;;;;;;5035742;28;20474;-74
2022/06/11 11:04:16;;;;;;;2.50;1.20;;;27.30;49.60;;;;;;5033713;28;20025;-73
2022/06/11 11:06:43;;;;;;;2.83;1.40;;;26.60;50.40;;;;;;5040487;28;20037;-74
2022/06/11 11:09:19;;;;;;;3.33;1.02;;;26.90;51.30;;;;;;5031736;28;20052;-74
2022/06/11 11:11:50;;;;;;;3.95;0.70;;;27.30;52.10;;;;;;5033437;28;20030;-76
2022/06/11 11:14:18;;;;;;;1.95;0.70;;;27.50;50.10;;;;;;5033571;28;20387;-75
2022/06/11 11:16:48;;;;;;;3.00;1.10;;;27.00;50.40;;;;;;5039898;28;20033;-74
2022/06/11 11:19:25;;;;;;;;;;;27.20;50.20;;;;;;5032533;28;20044;-74
2022/06/11 11:22:07;;;;;;;3.92;1.10;;;26.80;50.00;;;;;;5032884;28;20370;-76
2022/06/11 11:24:44;;;;;;;3.00;1.20;;;26.60;50.40;;;;;;5046058;28;20040;-76
2022/06/11 11:27:28;;;;;;;4.47;0.95;;;26.90;49.60;;;;;;5031981;28;20045;-74
2022/06/11 11:30:02;;;;;;;2.67;0.95;;;27.10;50.70;;;;;;5047983;28;20505;-75
2022/06/11 11:32:34;;;;;;;4.10;1.38;;;27.60;49.60;;;;;;5032024;28;20037;-74
2022/06/11 11:35:29;;;;;;;2.88;0.90;;;27.50;51.40;;;;;;5031160;28;20052;-73
2022/06/11 11:38:21;;;;;;;6.22;1.10;;;27.00;49.90;;;;;;5044587;28;20513;-73
2022/06/11 11:40:58;;;;;;;4.40;1.17;;;26.70;50.90;;;;;;5032811;28;20029;-74
2022/06/11 11:43:33;;;;;;;3.42;1.10;;;26.60;51.00;;;;;;5040655;28;20044;-74
2022/06/11 11:46:03;;;;;;;3.28;1.30;;;26.40;51.00;;;;;;5040577;28;20040;-74
2022/06/11 11:48:36;;;;;;;2.47;0.98;;;26.30;50.90;;;;;;5032651;28;20139;-74
2022/06/11 11:51:06;;;;;;;4.88;1.23;;;26.20;50.50;;;;;;5030984;28;20394;-75
2022/06/11 11:53:45;;;;;;;4.45;0.80;;;26.10;50.60;;;;;;5031721;28;20033;-74
2022/06/11 11:56:37;;;;;;;2.45;1.10;;;26.40;50.60;;;;;;5032282;28;20037;-76
2022/06/11 11:59:31;;;;;;;3.83;0.88;;;26.40;50.30;;;;;;5064892;28;20041;-75
2022/06/11 12:02:13;;;;;;;4.85;0.90;;;26.30;50.50;;;;;;5049018;28;20046;-76
2022/06/11 12:04:56;;;;;;;2.80;1.08;;;26.50;51.10;;;;;;5042914;28;20024;-75
2022/06/11 12:07:43;;;;;;;2.10;1.10;;;26.80;50.10;;;;;;5039582;28;20029;-76
2022/06/11 12:10:18;;;;;;;9.38;1.15;;;26.80;50.10;;;;;;5031927;28;20056;-76
2022/06/11 12:12:49;;;;;;;4.50;1.35;;;26.70;49.70;;;;;;5031243;28;20057;-74
2022/06/11 12:15:21;;;;;;;3.97;1.00;;;26.60;50.10;;;;;;5032079;28;20037;-76
2022/06/11 12:18:05;;;;;;;2.63;0.80;;;26.30;50.40;;;;;;5040239;28;20497;-74
2022/06/11 12:20:40;;;;;;;3.45;1.08;;;25.90;50.50;;;;;;5032579;28;20042;-76
2022/06/11 12:23:24;;;;;;;4.28;0.90;;;26.00;51.10;;;;;;5039255;28;20032;-75
2022/06/11 12:26:01;;;;;;;4.10;1.30;;;26.30;52.30;;;;;;5031001;28;20042;-75
2022/06/11 12:28:37;;;;;;;5.07;1.45;;;26.30;51.30;;;;;;5043571;28;20044;-75
2022/06/11 12:31:04;;;;;;;3.28;1.05;;;26.40;50.60;;;;;;5041615;28;20037;-76
2022/06/11 12:33:30;;;;;;;3.70;1.70;;;26.50;52.10;;;;;;5036393;28;20029;-76
2022/06/11 12:36:32;;;;;;;5.93;1.48;;;26.60;51.90;;;;;;5035826;28;20025;-76
2022/06/11 12:39:19;;;;;;;3.42;1.15;;;27.30;51.20;;;;;;5045703;28;20399;-75
2022/06/11 12:42:30;;;;;;;5.28;1.08;;;27.20;49.80;;;;;;5034768;28;20037;-76
2022/06/11 12:45:09;;;;;;;2.33;1.00;;;27.10;50.30;;;;;;5030518;28;20061;-76
2022/06/11 12:47:55;;;;;;;3.40;1.20;;;27.00;49.50;;;;;;5035750;28;20041;-77
2022/06/11 12:50:48;;;;;;;4.25;1.63;;;27.10;50.60;;;;;;5036409;28;20105;-76
2022/06/11 12:53:30;;;;;;;2.95;1.23;;;27.30;49.70;;;;;;5038658;28;20040;-76
2022/06/11 12:56:11;;;;;;;1.55;0.68;;;27.40;49.20;;;;;;5037391;28;20414;-76
2022/06/11 12:58:43;;;;;;;3.25;1.30;;;27.70;49.10;;;;;;5047967;28;20038;-76
2022/06/11 13:01:21;;;;;;;4.07;1.35;;;27.30;49.20;;;;;;5034182;28;20040;-77
2022/06/11 13:03:57;;;;;;;1.58;1.13;;;27.30;50.00;;;;;;5034063;28;20059;-76
2022/06/11 13:06:35;;;;;;;3.78;0.82;;;27.40;48.90;;;;;;5034661;28;20037;-77
2022/06/11 13:09:25;;;;;;;3.42;1.17;;;27.60;49.60;;;;;;5050453;28;20475;-73
2022/06/11 13:12:26;;;;;;;3.53;0.90;;;27.20;49.10;;;;;;5035952;28;20054;-74
2022/06/11 13:15:19;;;;;;;1.90;0.82;;;26.80;49.80;;;;;;5036271;28;20041;-74
2022/06/11 13:18:07;;;;;;;3.05;1.00;;;27.20;50.90;;;;;;5049906;28;20033;-74
2022/06/11 13:20:49;;;;;;;2.30;1.00;;;26.90;49.40;;;;;;5035684;28;20044;-73
2022/06/11 13:23:25;;;;;;;2.50;1.00;;;27.00;50.20;;;;;;5046688;28;20044;-73
2022/06/11 13:25:52;;;;;;;2.17;1.10;;;27.50;48.80;;;;;;5064959;28;20037;-75